Latest Coastal Weather Observations for Cape Leeuwin

IDW60701

Issued at 7:53 am WST Friday 9 December 2016 (issued every 10 minutes, with the page automatically refreshed every 10 minutes)

About coastal observations | Map of coastal stations | Coastal observations for WA | Marine services | Other Formats
Station Details ID: 009518 Name: CAPE LEEUWIN Lat: -34.37 Lon: 115.14 Height: 13.0 m
Data from the previous 72 hours. | See also: Recent months at Cape Leeuwin
Date/Time
WST
Temp
°C
Wind Pressure Rain since
9am
mm
Weather Cloud Vis
km
Sea
Height
m
Swell
Dir  Spd
kts
Gust
kts
hPa Trend Height
m
Period
s
Dir
09/07:30am 18.6 E 11 14 1016.7 - 0.0 - - - - - - -
09/07:00am 18.3 E 9 11 1017.0 - 0.0 - - - - - - -
09/06:30am 17.9 E 10 12 1017.1 - 0.0 - - - - - - -
09/06:00am 17.2 E 11 12 1017.0 - 0.0 - - - - - - -
09/05:30am 16.5 ESE 12 15 1016.9 - 0.0 - - - - - - -
09/05:00am 16.3 E 13 15 1016.8 - 0.0 - - - - - - -
09/04:30am 16.3 ESE 12 15 1016.7 - 0.0 - - - - - - -
09/04:00am 16.6 E 15 17 1016.3 - 0.0 - - - - - - -
09/03:30am 16.8 E 16 19 1016.2 - 0.0 - - - - - - -
09/03:00am 17.1 E 15 17 1016.3 - 0.0 - - - - - - -
09/02:30am 17.1 ESE 15 17 1016.6 - 0.0 - - - - - - -
09/02:00am 17.0 ESE 14 16 1016.8 - 0.0 - - - - - - -
09/01:30am 17.0 ESE 16 18 1016.9 - 0.0 - - - - - - -
09/01:00am 16.9 ESE 16 18 1017.2 - 0.0 - - - - - - -
09/12:30am 16.8 ESE 14 17 1017.7 - 0.0 - - - - - - -
09/12:00am 16.8 ESE 16 19 1017.7 - 0.0 - - - - - - -
 
Date/Time
WST
Temp
°C
Wind Pressure Rain since
9am
mm
Weather Cloud Vis
km
Sea
Height
m
Swell
Dir  Spd
kts
Gust
kts
hPa Trend Height
m
Period
s
Dir
08/11:30pm 16.8 ESE 17 21 1018.0 - 0.0 - - - - - - -
08/11:00pm 16.8 ESE 20 22 1018.2 - 0.0 - - - - - - -
08/10:30pm 16.9 ESE 20 23 1018.6 - 0.0 - - - - - - -
08/10:00pm 17.0 ESE 21 24 1018.7 - 0.0 - - - - - - -
08/09:30pm 17.1 ESE 21 26 1018.9 - 0.0 - - - - - - -
08/09:00pm 17.2 ESE 21 26 1018.9 - 0.0 - - - - - - -
08/08:30pm 17.0 ESE 21 26 1019.1 - 0.0 - - - - - - -
08/08:00pm 17.1 ESE 21 28 1019.3 - 0.0 - - - - - - -
08/07:30pm 17.0 ESE 22 27 1019.2 - 0.0 - - - - - - -
08/07:00pm 17.2 ESE 21 28 1019.0 - 0.0 - - - - - - -
08/06:30pm 17.3 SE 20 28 1018.9 - 0.0 - - - - - - -
08/06:00pm 17.4 SE 21 27 1018.9 - 0.0 - - - - - - -
08/05:30pm 17.9 SE 20 26 1018.8 - 0.0 - - - - - - -
08/05:00pm 18.0 SE 19 25 1018.7 - 0.0 - - - - - - -
08/04:30pm 18.5 SE 18 23 1019.0 - 0.0 - - - - - - -
08/04:00pm 19.2 SE 19 23 1019.2 - 0.0 - - - - - - -
08/03:30pm 19.6 SE 18 23 1019.6 - 0.0 - - - - - - -
08/03:00pm 19.8 SE 18 22 1019.6 - 0.0 - - - - - - -
08/02:30pm 20.0 SE 17 21 1019.6 - 0.0 - - - - - - -
08/02:00pm 19.6 SE 17 21 1019.9 - 0.0 - - - - - - -
08/01:30pm 20.1 SE 18 21 1020.1 - 0.0 - - - - - - -
08/01:00pm 20.1 SE 16 21 1020.3 - 0.0 - - - - - - -
08/12:30pm 20.1 SE 16 19 1020.7 - 0.0 - - - - - - -
08/12:00pm 19.6 SE 14 19 1021.1 - 0.0 - - - - - - -
08/11:30am 18.5 SE 13 17 1021.4 - 0.0 - - - - - - -
08/11:00am 18.3 SE 15 19 1021.7 - 0.0 - - - - - - -
08/10:30am 17.8 ESE 12 16 1022.0 - 0.0 - - - - - - -
08/10:00am 17.4 ESE 13 17 1022.5 - 0.0 - - - - - - -
08/09:30am 17.0 ESE 15 19 1022.3 - 0.0 - - - - - - -
08/09:00am 16.9 E 15 21 1022.5 - 0.0 - - - - - - -
08/08:30am 15.6 E 17 20 1022.5 - 0.0 - - - - - - -
08/08:00am 15.5 E 17 22 1022.7 - 0.0 - - - - - - -
08/07:30am 15.2 ENE 17 20 1022.6 - 0.0 - - - - - - -
08/07:00am 14.9 ENE 15 19 1022.6 - 0.0 - - - - - - -
08/06:30am 14.8 E 17 22 1022.3 - 0.0 - - - - - - -
08/06:00am 14.6 E 18 22 1022.0 - 0.0 - - - - - - -
08/05:30am 14.1 E 17 21 1021.7 - 0.0 - - - - - - -
08/05:00am 14.2 E 19 22 1021.3 - 0.0 - - - - - - -
08/04:30am 14.7 E 18 23 1021.1 - 0.0 - - - - - - -
08/04:00am 14.9 E 18 23 1021.0 - 0.0 - - - - - - -
08/03:30am 15.2 ESE 17 23 1020.8 - 0.0 - - - - - - -
08/03:00am 15.2 ESE 15 19 1021.0 - 0.0 - - - - - - -
08/02:30am 15.1 ESE 17 23 1020.7 - 0.0 - - - - - - -
08/02:00am 15.3 ESE 17 21 1021.0 - 0.0 - - - - - - -
08/01:30am 15.3 ESE 15 18 1021.2 - 0.0 - - - - - - -
08/01:00am 15.2 ESE 15 21 1021.4 - 0.0 - - - - - - -
08/12:30am 15.1 SE 15 20 1021.9 - 0.0 - - - - - - -
08/12:00am 15.2 SE 15 21 1022.0 - 0.0 - - - - - - -
 
Date/Time
WST
Temp
°C
Wind Pressure Rain since
9am
mm
Weather Cloud Vis
km
Sea
Height
m
Swell
Dir  Spd
kts
Gust
kts
hPa Trend Height
m
Period
s
Dir
07/11:30pm 15.2 SE 15 20 1022.1 - 0.0 - - - - - - -
07/11:00pm 15.4 SE 17 23 1022.1 - 0.0 - - - - - - -
07/10:30pm 15.2 SE 18 24 1022.1 - 0.0 - - - - - - -
07/10:00pm 15.5 SE 17 24 1022.2 - 0.0 - - - - - - -
07/09:30pm 15.6 SE 17 22 1022.2 - 0.0 - - - - - - -
07/09:00pm 15.8 SE 16 22 1021.9 - 0.0 - - - - - - -
07/08:30pm 15.6 SE 18 22 1021.8 - 0.0 - - - - - - -
07/08:00pm 15.6 SSE 17 22 1021.9 - 0.0 - - - - - - -
07/07:30pm 15.8 SE 15 21 1021.6 - 0.0 - - - - - - -
07/07:00pm 16.1 SSE 16 21 1021.3 - 0.0 - - - - - - -
07/06:30pm 16.5 SSE 16 21 1020.9 - 0.0 - - - - - - -
07/06:00pm 16.6 SSE 15 20 1020.7 - 0.0 - - - - - - -
07/05:30pm 17.7 SSE 14 19 1020.4 - 0.0 - - - - - - -
07/05:00pm 18.7 SSE 13 18 1020.0 - 0.0 - - - - - - -
07/04:30pm 17.7 SSE 15 19 1020.0 - 0.0 - - - - - - -
07/04:00pm 19.5 SSE 13 19 1019.9 - 0.0 - - - - - - -
07/03:30pm 18.5 SSE 12 16 1020.0 - 0.0 - - - - - - -
07/03:00pm 19.2 S 13 17 1019.8 - 0.0 - - - - - - -
07/02:30pm 18.8 S 12 16 1019.7 - 0.0 - - - - - - -
07/02:00pm 19.7 S 10 13 1019.6 - 0.0 - - - - - - -
07/01:30pm 19.7 S 12 15 1019.5 - 0.0 - - - - - - -
07/01:00pm 19.9 S 11 16 1019.4 - 0.0 - - - - - - -
07/12:30pm 19.5 S 10 14 1019.3 - 0.0 - - - - - - -
07/12:00pm 20.1 S 11 16 1019.2 - 0.0 - - - - - - -
07/11:30am 19.5 S 13 18 1019.1 - 0.0 - - - - - - -
07/11:00am 19.6 S 13 18 1018.8 - 0.0 - - - - - - -
07/10:30am 19.2 S 14 19 1018.7 - 0.0 - - - - - - -
07/10:00am 18.5 S 16 21 1018.4 - 0.0 - - - - - - -
07/09:30am 17.5 SSW 18 24 1018.1 - 0.0 - - - - - - -
07/09:00am 18.4 S 17 23 1017.8 - 0.0 - - - - - - -
07/08:30am 18.4 SSW 18 24 1017.4 - 0.0 - - - - - - -
07/08:00am 17.2 SSW 17 22 1017.1 - 0.0 - - - - - - -
07/07:30am 17.6 SW 19 23 1016.7 - 0.0 - - - - - - -
07/07:00am 17.5 SW 22 27 1016.4 - 0.0 - - - - - - -
07/06:30am 17.3 SW 23 31 1015.9 - 0.0 - - - - - - -
07/06:00am 17.2 SW 19 26 1015.3 - 0.0 - - - - - - -
07/05:30am 17.2 SW 23 27 1014.7 - 0.0 - - - - - - -
07/05:00am 16.9 SW 25 32 1014.2 - 0.0 - - - - - - -
07/04:30am 17.2 SW 27 32 1013.6 - 0.0 - - - - - - -
07/04:00am 17.5 WSW 27 32 1013.1 - 0.0 - - - - - - -
07/03:30am 17.4 SW 26 31 1012.8 - 0.0 - - - - - - -
07/03:00am 18.0 WSW 26 31 1012.4 - 0.0 - - - - - - -
07/02:30am 17.9 WSW 27 31 1012.0 - 0.0 - - - - - - -
07/02:00am 17.7 WSW 25 29 1011.9 - 0.0 - - - - - - -
07/01:30am 17.7 W 24 28 1011.9 - 0.0 - - - - - - -
07/01:00am 18.4 W 19 23 1012.0 - 0.0 - - - - - - -
07/12:30am 18.7 W 22 26 1012.2 - 0.0 - - - - - - -
07/12:00am 18.6 W 24 29 1012.4 - 0.0 - - - - - - -
 
Date/Time
WST
Temp
°C
Wind Pressure Rain since
9am
mm
Weather Cloud Vis
km
Sea
Height
m
Swell
Dir  Spd
kts
Gust
kts
hPa Trend Height
m
Period
s
Dir
06/11:30pm 18.5 W 22 26 1012.7 - 0.0 - - - - - - -
06/11:00pm 18.5 W 21 25 1012.9 - 0.0 - - - - - - -
06/10:30pm 18.7 W 21 26 1013.2 - 0.0 - - - - - - -
06/10:00pm 18.5 WNW 22 26 1013.3 - 0.0 - - - - - - -
06/09:30pm 18.5 WNW 23 27 1013.4 - 0.0 - - - - - - -
06/09:00pm 18.5 W 21 26 1013.6 - 0.0 - - - - - - -
06/08:30pm 18.6 WNW 20 25 1013.6 - 0.0 - - - - - - -
06/08:00pm 18.7 W 21 24 1013.6 - 0.0 - - - - - - -
06/07:30pm 18.6 W 18 21 1013.5 - 0.0 - - - - - - -
06/07:00pm 18.6 W 22 27 1013.5 - 0.0 - - - - - - -
06/06:30pm 18.8 W 21 23 1013.4 - 0.0 - - - - - - -
06/06:00pm 18.9 W 20 22 1013.4 - 0.0 - - - - - - -
06/05:30pm 18.8 WNW 19 21 1013.3 - 0.0 - - - - - - -
06/05:00pm 19.0 W 18 21 1013.3 - 0.0 - - - - - - -
06/04:30pm 19.4 W 18 21 1013.5 - 0.0 - - - - - - -
06/04:00pm 19.1 WNW 15 19 1013.6 - 0.0 - - - - - - -
06/03:30pm 19.9 NW 15 17 1013.8 - 0.0 - - - - - - -
06/03:00pm 19.5 NW 13 15 1014.1 - 0.0 - - - - - - -
06/02:30pm 19.5 NW 12 14 1014.4 - 0.0 - - - - - - -
06/02:00pm 18.6 WNW 16 19 1014.8 - 0.0 - - - - - - -
06/01:30pm 19.6 W 17 19 1015.2 - 0.0 - - - - - - -
06/01:00pm 20.0 WNW 13 16 1015.6 - 0.0 - - - - - - -
06/12:30pm 20.1 WNW 16 18 1015.9 - 0.0 - - - - - - -
06/12:00pm 19.5 WNW 14 17 1016.3 - 0.0 - - - - - - -
06/11:30am 20.0 W 16 19 1016.4 - 0.0 - - - - - - -
06/11:00am 19.9 WNW 16 19 1016.5 - 0.0 - - - - - - -
06/10:30am 19.3 WNW 14 17 1016.8 - 0.0 - - - - - - -
06/10:00am 19.1 WNW 12 15 1017.0 - 0.0 - - - - - - -
06/09:30am 19.3 WNW 11 13 1017.1 - 0.0 - - - - - - -
06/09:00am 18.8 W 12 16 1017.3 - 0.0 - - - - - - -
06/08:30am 18.6 WNW 12 15 1017.3 - 0.0 - - - - - - -
06/08:00am 18.2 WNW 12 15 1017.2 - 0.0 - - - - - - -

Other Formats:

Comma delimited format used in spreadsheet applications
http://www.bom.gov.au/fwo/IDW60701/IDW60701.94601.axf

JavaScript Object Notation format (JSON) in row-major order
http://www.bom.gov.au/fwo/IDW60701/IDW60701.94601.json